createdAt,value
2018-11-13T00:00:16.403Z,90.35
2018-11-13T00:01:16.384Z,90.25
2018-11-13T00:02:16.981Z,90.25
2018-11-13T00:03:16.365Z,90.35
2018-11-13T00:04:16.392Z,90.04
2018-11-13T00:05:16.348Z,90.45
2018-11-13T00:06:16.340Z,90.77
2018-11-13T00:07:16.315Z,91.07
2018-11-13T00:08:16.307Z,91.59
2018-11-13T00:09:16.304Z,90.97
2018-11-13T00:10:37.402Z,90.77
2018-11-13T00:11:16.296Z,91.17
2018-11-13T00:12:16.258Z,90.45
2018-11-13T00:13:16.247Z,90.39
2018-11-13T00:14:16.240Z,90.25
2018-11-13T00:15:16.280Z,90.45
2018-11-13T00:16:16.214Z,90.87
2018-11-13T00:17:16.197Z,90.87
2018-11-13T00:18:16.196Z,90.77
2018-11-13T00:19:16.191Z,91.01
2018-11-13T00:20:16.169Z,90.97
2018-11-13T00:21:16.182Z,90.80
2018-11-13T00:22:16.147Z,90.77
2018-11-13T00:23:25.667Z,91.74
2018-11-13T00:24:26.254Z,91.63
2018-11-13T00:26:28.379Z,91.63
2018-11-13T00:27:38.160Z,91.69
2018-11-13T00:28:39.272Z,91.01
2018-11-13T00:29:28.312Z,90.97
2018-11-13T00:30:28.199Z,91.11
2018-11-13T00:31:28.158Z,90.80
2018-11-13T00:32:28.207Z,90.80
2018-11-13T00:33:28.170Z,90.80
2018-11-13T00:34:28.249Z,91.01
2018-11-13T00:35:28.121Z,91.11
2018-11-13T00:36:28.090Z,91.53
2018-11-13T00:37:28.122Z,91.53
2018-11-13T00:38:28.069Z,91.63
2018-11-13T00:39:28.053Z,91.74
2018-11-13T00:40:28.059Z,90.77
2018-11-13T00:41:37.525Z,91.42
2018-11-13T00:42:28.070Z,91.22
2018-11-13T00:43:28.088Z,91.11
2018-11-13T00:44:28.055Z,91.01
2018-11-13T00:45:28.198Z,91.01
2018-11-13T00:46:27.988Z,91.63
2018-11-13T00:47:27.967Z,91.57
2018-11-13T00:48:28.521Z,91.42
2018-11-13T00:49:27.949Z,91.32
2018-11-13T00:50:37.446Z,91.47
2018-11-13T00:51:28.051Z,91.53
2018-11-13T00:52:27.926Z,91.94
2018-11-13T00:53:28.029Z,92.05
2018-11-13T00:54:27.944Z,92.15
2018-11-13T00:55:27.999Z,92.36
2018-11-13T00:56:37.426Z,92.05
2018-11-13T00:57:27.915Z,91.94
2018-11-13T00:58:27.897Z,91.94
2018-11-13T00:59:27.878Z,91.22
2018-11-13T01:00:36.542Z,91.42
2018-11-13T01:01:27.904Z,90.70
2018-11-13T01:02:27.842Z,91.32
2018-11-13T01:03:27.844Z,90.91
2018-11-13T01:04:27.848Z,91.53
2018-11-13T01:05:27.893Z,91.74
2018-11-13T01:06:27.775Z,91.05
2018-11-13T01:07:27.765Z,91.01
2018-11-13T01:08:27.736Z,90.64
2018-11-13T01:09:27.780Z,91.88
2018-11-13T01:10:27.742Z,91.67
2018-11-13T01:11:27.711Z,91.47
2018-11-13T01:12:27.751Z,92.09
2018-11-13T01:13:36.364Z,92.30
2018-11-13T01:14:27.747Z,92.30
2018-11-13T01:15:27.702Z,92.19
2018-11-13T01:16:27.672Z,91.78
2018-11-13T01:17:27.722Z,91.22
2018-11-13T01:18:27.668Z,91.99
2018-11-13T01:19:27.626Z,91.88
2018-11-13T01:20:27.639Z,91.99
2018-11-13T01:21:27.636Z,91.78
2018-11-13T01:22:27.619Z,91.57
2018-11-13T01:23:27.575Z,92.09
2018-11-13T01:24:27.615Z,91.99
2018-11-13T01:25:38.203Z,91.99
2018-11-13T01:26:37.580Z,91.26
2018-11-13T01:27:27.547Z,91.67
2018-11-13T01:28:27.570Z,91.26
2018-11-13T01:29:27.525Z,91.36
2018-11-13T01:30:27.542Z,91.47
2018-11-13T01:31:27.571Z,91.20
2018-11-13T01:32:37.430Z,91.57
2018-11-13T01:33:38.555Z,91.47
2018-11-13T01:34:27.495Z,91.99
2018-11-13T01:35:38.393Z,92.30
2018-11-13T01:36:27.993Z,92.81
2018-11-13T01:37:27.470Z,93.02
2018-11-13T01:38:27.518Z,92.91
2018-11-13T01:39:27.394Z,93.54
2018-11-13T01:40:27.436Z,93.85
2018-11-13T01:41:38.762Z,93.64
2018-11-13T01:42:27.360Z,93.64
2018-11-13T01:43:27.406Z,92.61
2018-11-13T01:44:27.367Z,93.02
2018-11-13T01:45:27.360Z,93.33
2018-11-13T01:46:27.303Z,92.50
2018-11-13T01:47:27.328Z,92.81
2018-11-13T01:48:27.279Z,92.91
2018-11-13T01:49:27.343Z,93.12
2018-11-13T01:50:39.512Z,92.96
2018-11-13T01:51:27.298Z,92.81
2018-11-13T01:52:27.241Z,92.71
2018-11-13T01:53:27.241Z,92.50
2018-11-13T01:54:27.279Z,92.50
2018-11-13T01:55:27.260Z,93.02
2018-11-13T01:56:27.233Z,93.12
2018-11-13T01:57:27.565Z,92.40
2018-11-13T01:58:27.159Z,93.33
2018-11-13T01:59:27.168Z,92.50
2018-11-13T02:00:27.158Z,92.30
2018-11-13T02:01:27.124Z,92.76
2018-11-13T02:02:27.134Z,92.44
2018-11-13T02:03:27.101Z,93.02
2018-11-13T02:04:27.085Z,92.76
2018-11-13T02:05:27.086Z,93.02
2018-11-13T02:06:27.082Z,92.44
2018-11-13T02:07:27.081Z,92.65
2018-11-13T02:08:27.043Z,92.13
2018-11-13T02:09:27.032Z,91.61
2018-11-13T02:10:27.023Z,91.72
2018-11-13T02:11:27.032Z,92.13
2018-11-13T02:12:27.004Z,92.03
2018-11-13T02:13:26.997Z,92.85
2018-11-13T02:14:26.992Z,92.03
2018-11-13T02:15:26.967Z,92.24
2018-11-13T02:16:26.948Z,92.34
2018-11-13T02:17:26.952Z,92.03
2018-11-13T02:18:26.930Z,92.13
2018-11-13T02:19:26.944Z,91.72
2018-11-13T02:20:26.927Z,92.03
2018-11-13T02:21:27.504Z,92.13
2018-11-13T02:22:26.888Z,91.93
2018-11-13T02:23:26.877Z,92.24
2018-11-13T02:24:26.880Z,92.13
2018-11-13T02:25:27.508Z,92.65
2018-11-13T02:26:26.852Z,92.85
2018-11-13T02:27:26.825Z,92.85
2018-11-13T02:28:26.823Z,93.06
2018-11-13T02:29:26.824Z,92.65
2018-11-13T02:30:26.794Z,92.85
2018-11-13T02:31:26.804Z,92.76
2018-11-13T02:32:26.773Z,93.58
2018-11-13T02:33:26.762Z,93.85
2018-11-13T02:34:26.748Z,93.33
2018-11-13T02:35:26.849Z,93.33
2018-11-13T02:36:26.730Z,93.43
2018-11-13T02:37:26.721Z,93.33
2018-11-13T02:38:26.705Z,93.33
2018-11-13T02:39:26.699Z,93.43
2018-11-13T02:40:26.725Z,94.06
2018-11-13T02:41:26.688Z,93.85
2018-11-13T02:42:26.695Z,94.06
2018-11-13T02:43:26.648Z,93.85
2018-11-13T02:44:26.640Z,93.95
2018-11-13T02:45:26.627Z,93.95
2018-11-13T02:46:26.607Z,93.74
2018-11-13T02:47:37.273Z,94.06
2018-11-13T02:48:26.621Z,93.85
2018-11-13T02:49:26.600Z,93.95
2018-11-13T02:50:26.623Z,93.74
2018-11-13T02:51:26.613Z,93.85
2018-11-13T02:52:26.680Z,93.74
2018-11-13T02:53:26.620Z,94.57
2018-11-13T02:54:26.522Z,94.32
2018-11-13T02:55:26.527Z,94.32
2018-11-13T02:56:36.339Z,94.32
2018-11-13T02:57:26.546Z,94.12
2018-11-13T02:58:26.533Z,94.22
2018-11-13T02:59:26.481Z,94.94
2018-11-13T03:00:26.546Z,95.00
2018-11-13T03:01:26.484Z,94.79
2018-11-13T03:02:26.569Z,94.84
2018-11-13T03:03:26.417Z,94.79
2018-11-13T03:04:26.549Z,94.59
2018-11-13T03:05:26.399Z,94.48
2018-11-13T03:06:26.383Z,94.28
2018-11-13T03:07:26.381Z,94.18
2018-11-13T03:08:36.869Z,94.07
2018-11-13T03:09:26.415Z,94.28
2018-11-13T03:10:27.298Z,94.18
2018-11-13T03:11:26.328Z,94.28
2018-11-13T03:12:26.347Z,94.48
2018-11-13T03:13:26.368Z,94.28
2018-11-13T03:14:26.473Z,94.48
2018-11-13T03:15:26.301Z,94.07
2018-11-13T03:16:26.273Z,94.18
2018-11-13T03:17:26.282Z,94.28
2018-11-13T03:18:26.253Z,94.38
2018-11-13T03:19:26.240Z,94.44
2018-11-13T03:20:26.254Z,94.03
2018-11-13T03:21:26.215Z,94.54
2018-11-13T03:22:26.202Z,94.03
2018-11-13T03:23:26.197Z,94.44
2018-11-13T03:24:26.182Z,94.23
2018-11-13T03:25:26.209Z,94.13
2018-11-13T03:26:26.157Z,94.44
2018-11-13T03:27:26.148Z,94.44
2018-11-13T03:28:26.131Z,94.23
2018-11-13T03:29:38.366Z,94.03
2018-11-13T03:30:26.718Z,94.96
2018-11-13T03:31:26.830Z,94.23
2018-11-13T03:32:34.782Z,94.44
2018-11-13T03:33:26.119Z,94.03
2018-11-13T03:34:26.166Z,94.03
2018-11-13T03:35:26.124Z,94.13
2018-11-13T03:36:26.086Z,94.40
2018-11-13T03:37:26.067Z,94.03
2018-11-13T03:38:26.069Z,93.98
2018-11-13T03:39:26.050Z,94.34
2018-11-13T03:40:26.017Z,94.44
2018-11-13T03:41:26.015Z,93.93
2018-11-13T03:42:26.026Z,94.13
2018-11-13T03:43:37.107Z,93.51
2018-11-13T03:44:25.988Z,93.82
2018-11-13T03:45:27.009Z,93.82
2018-11-13T03:46:25.974Z,93.47
2018-11-13T03:47:27.015Z,94.44
2018-11-13T03:48:25.963Z,94.44
2018-11-13T03:49:25.914Z,94.34
2018-11-13T03:50:25.924Z,94.13
2018-11-13T03:51:25.997Z,94.34
2018-11-13T03:52:25.916Z,94.44
2018-11-13T03:53:26.016Z,94.23
2018-11-13T03:54:25.839Z,94.75
2018-11-13T03:55:25.843Z,94.75
2018-11-13T03:56:34.516Z,94.60
2018-11-13T03:57:25.844Z,94.65
2018-11-13T03:58:35.917Z,94.23
2018-11-13T03:59:34.506Z,94.54
2018-11-13T04:00:38.575Z,94.23
2018-11-13T04:02:40.781Z,94.44
2018-11-13T04:03:52.336Z,94.54
2018-11-13T04:04:48.845Z,94.54
2018-11-13T04:05:40.247Z,94.54
2018-11-13T04:06:52.338Z,94.71
2018-11-13T04:07:40.157Z,94.29
2018-11-13T04:16:13.082Z,94.50
2018-11-13T04:16:57.252Z,94.50
2018-11-13T04:17:55.899Z,94.35
2018-11-13T04:18:55.783Z,94.60
2018-11-13T04:19:55.740Z,94.71
2018-11-13T04:20:55.764Z,94.50
2018-11-13T04:21:55.720Z,94.56
2018-11-13T04:22:55.711Z,94.46
2018-11-13T04:23:55.719Z,94.46
2018-11-13T04:24:55.689Z,94.46
2018-11-13T04:26:05.214Z,94.56
2018-11-13T04:27:05.201Z,94.46
2018-11-13T04:27:55.700Z,94.67
2018-11-13T04:28:55.653Z,94.46
2018-11-13T04:29:55.660Z,94.56
2018-11-13T04:30:55.712Z,94.35
2018-11-13T04:31:55.641Z,94.35
2018-11-13T04:32:55.611Z,94.35
2018-11-13T04:33:55.647Z,94.15
2018-11-13T04:35:06.860Z,94.56
2018-11-13T04:37:08.596Z,94.15
2018-11-13T04:38:18.311Z,94.56
2018-11-13T04:43:21.749Z,94.87
2018-11-13T04:43:50.503Z,94.35
2018-11-13T04:44:47.744Z,94.67
2018-11-13T04:50:39.185Z,94.04
2018-11-13T04:52:34.452Z,94.77
2018-11-13T04:53:42.914Z,94.67
2018-11-13T04:54:34.349Z,94.46
2018-11-13T04:55:43.774Z,94.42
2018-11-13T04:56:45.217Z,94.67
2018-11-13T04:58:47.957Z,94.62
2018-11-13T04:59:58.837Z,94.62
2018-11-13T05:00:47.827Z,94.52
2018-11-13T05:01:47.780Z,94.62
2018-11-13T05:03:01.700Z,94.62
2018-11-13T05:03:47.884Z,94.42
2018-11-13T05:04:57.315Z,94.62
2018-11-13T05:05:47.820Z,94.52
2018-11-13T05:06:58.328Z,94.42
2018-11-13T05:07:47.766Z,93.79
2018-11-13T05:08:57.173Z,94.52
2018-11-13T05:09:48.362Z,94.42
2018-11-13T05:11:24.516Z,94.21
2018-11-13T05:11:47.710Z,94.62
2018-11-13T05:13:01.701Z,94.93
2018-11-13T05:13:56.308Z,94.57
2018-11-13T05:14:58.770Z,94.89
2018-11-13T05:15:47.668Z,94.57
2018-11-13T05:16:57.172Z,94.57
2018-11-13T05:17:47.613Z,94.74
2018-11-13T05:18:47.604Z,95.25
2018-11-13T05:20:00.240Z,95.56
2018-11-13T05:21:58.954Z,96.34
2018-11-13T05:25:44.121Z,95.17
2018-11-13T05:26:44.798Z,95.37
2018-11-13T05:27:36.148Z,95.02
2018-11-13T05:28:46.762Z,95.28
2018-11-13T05:29:44.747Z,95.08
2018-11-13T05:31:48.484Z,94.27
2018-11-13T05:32:48.424Z,93.96
2018-11-13T05:33:58.455Z,93.44
2018-11-13T05:34:48.342Z,92.48
2018-11-13T05:35:56.989Z,91.20
2018-11-13T05:36:48.329Z,90.38
2018-11-13T05:37:56.986Z,89.62
2018-11-13T05:39:00.271Z,89.52
2018-11-13T05:39:48.261Z,88.80
2018-11-13T05:41:59.634Z,87.90
2018-11-13T05:42:59.605Z,87.49
2018-11-13T05:43:59.481Z,87.28
2018-11-13T05:44:59.471Z,86.52
2018-11-13T05:45:59.574Z,85.80
2018-11-13T05:46:59.462Z,85.91
2018-11-13T05:48:00.203Z,85.91
2018-11-13T05:48:59.482Z,86.01
2018-11-13T05:49:59.422Z,85.80
2018-11-13T05:51:08.843Z,85.97
2018-11-13T05:51:59.378Z,84.99
2018-11-13T05:52:59.389Z,85.25
2018-11-13T05:53:59.378Z,85.46
2018-11-13T05:54:59.367Z,85.36
2018-11-13T05:56:10.514Z,84.84
2018-11-13T05:56:59.383Z,84.84
2018-11-13T05:57:59.302Z,84.64
2018-11-13T05:58:59.379Z,84.09
2018-11-13T05:59:59.395Z,84.44
2018-11-13T06:00:59.298Z,83.92
2018-11-13T06:01:59.259Z,84.19
2018-11-13T06:02:59.257Z,84.12
2018-11-13T06:03:59.256Z,83.58
2018-11-13T06:05:08.817Z,83.88
2018-11-13T06:05:59.227Z,84.09
2018-11-13T06:07:07.892Z,83.88
2018-11-13T06:07:59.200Z,84.44
2018-11-13T06:09:07.825Z,83.78
2018-11-13T06:10:10.091Z,84.50
2018-11-13T06:10:59.220Z,84.29
2018-11-13T06:11:59.177Z,84.44
2018-11-13T06:12:59.260Z,84.29
2018-11-13T06:13:59.198Z,84.39
2018-11-13T06:14:59.106Z,84.60
2018-11-13T06:15:59.098Z,84.29
2018-11-13T06:16:59.080Z,84.19
2018-11-13T06:17:59.118Z,84.19
2018-11-13T06:18:59.053Z,84.09
2018-11-13T06:19:59.048Z,84.09
2018-11-13T06:20:59.041Z,83.98
2018-11-13T06:21:59.018Z,84.25
2018-11-13T06:22:59.915Z,83.78
2018-11-13T06:24:09.722Z,83.98
2018-11-13T06:24:59.012Z,84.09
2018-11-13T06:25:59.006Z,84.09
2018-11-13T06:26:58.988Z,83.98
2018-11-13T06:28:10.050Z,83.78
2018-11-13T06:28:58.958Z,83.78
2018-11-13T06:29:58.935Z,84.19
2018-11-13T06:30:59.513Z,84.09
2018-11-13T06:32:08.732Z,83.74
2018-11-13T06:33:09.778Z,84.39
2018-11-13T06:33:58.885Z,84.39
2018-11-13T06:34:58.919Z,84.60
2018-11-13T06:36:09.870Z,84.70
2018-11-13T06:37:08.393Z,85.31
2018-11-13T06:37:58.936Z,83.98
2018-11-13T06:38:58.941Z,85.48
2018-11-13T06:39:58.887Z,84.87
2018-11-13T06:41:09.604Z,85.28
2018-11-13T06:42:08.745Z,85.07
2018-11-13T06:42:58.851Z,85.07
2018-11-13T06:43:58.772Z,85.07
2018-11-13T06:44:58.823Z,85.24
2018-11-13T06:45:58.782Z,85.14
2018-11-13T06:46:58.882Z,84.99
2018-11-13T06:47:58.744Z,84.99
2018-11-13T06:48:59.254Z,84.55
2018-11-13T06:49:58.710Z,84.03
2018-11-13T06:50:58.681Z,84.14
2018-11-13T06:52:01.786Z,83.89
2018-11-13T06:52:59.659Z,83.69
2018-11-13T06:54:07.364Z,84.09
2018-11-13T06:54:58.698Z,84.47
2018-11-13T06:55:59.245Z,83.14
2018-11-13T06:56:58.693Z,84.36
2018-11-13T06:57:58.617Z,83.04
2018-11-13T06:58:58.615Z,83.65
2018-11-13T06:59:58.674Z,83.75
2018-11-13T07:01:00.801Z,82.93
2018-11-13T07:01:58.628Z,83.85
2018-11-13T07:02:58.549Z,83.30
2018-11-13T07:03:58.560Z,82.89
2018-11-13T07:04:58.568Z,82.89
2018-11-13T07:05:58.536Z,83.00
2018-11-13T07:06:58.530Z,82.69
2018-11-13T07:07:58.494Z,84.12
2018-11-13T07:09:08.073Z,82.89
2018-11-13T07:09:58.529Z,83.71
2018-11-13T07:10:58.547Z,83.57
2018-11-13T07:11:58.490Z,83.10
2018-11-13T07:12:58.526Z,83.71
2018-11-13T07:13:58.554Z,83.61
2018-11-13T07:14:58.429Z,83.00
2018-11-13T07:15:58.423Z,83.20
2018-11-13T07:16:58.406Z,83.30
2018-11-13T07:17:58.409Z,83.57
2018-11-13T07:18:58.376Z,83.78
2018-11-13T07:19:58.379Z,83.78
2018-11-13T07:20:58.372Z,82.96
2018-11-13T07:21:58.344Z,82.55
2018-11-13T07:22:58.335Z,82.45
2018-11-13T07:23:59.301Z,82.65
2018-11-13T07:24:58.325Z,82.55
2018-11-13T07:26:07.071Z,82.65
2018-11-13T07:26:59.266Z,82.82
2018-11-13T07:27:58.292Z,82.71
2018-11-13T07:28:58.340Z,82.61
2018-11-13T07:29:58.332Z,82.92
2018-11-13T07:30:58.376Z,82.82
2018-11-13T07:31:59.219Z,82.82
2018-11-13T07:32:58.261Z,82.92
2018-11-13T07:33:58.218Z,82.21
2018-11-13T07:34:58.201Z,82.92
2018-11-13T07:35:58.274Z,82.82
2018-11-13T07:36:58.181Z,82.71
2018-11-13T07:37:58.180Z,82.82
2018-11-13T07:38:58.158Z,82.51
2018-11-13T07:39:58.143Z,82.31
2018-11-13T07:40:58.179Z,82.92
2018-11-13T07:41:58.112Z,82.71
2018-11-13T07:42:58.116Z,82.71
2018-11-13T07:43:58.092Z,82.31
2018-11-13T07:44:58.085Z,82.41
2018-11-13T07:45:58.068Z,82.41
2018-11-13T07:46:58.222Z,82.61
2018-11-13T07:47:58.123Z,82.92
2018-11-13T07:48:58.047Z,83.12
2018-11-13T07:49:58.019Z,83.12
2018-11-13T07:50:58.068Z,82.92
2018-11-13T07:51:57.998Z,82.92
2018-11-13T07:52:58.044Z,83.73
2018-11-13T07:53:58.220Z,83.23
2018-11-13T07:54:57.969Z,83.53
2018-11-13T07:55:57.950Z,83.53
2018-11-13T07:56:57.945Z,83.63
2018-11-13T07:57:57.934Z,83.84
2018-11-13T07:58:57.945Z,83.29
2018-11-13T07:59:57.923Z,83.63
2018-11-13T08:00:58.770Z,83.73
2018-11-13T08:01:57.892Z,83.12
2018-11-13T08:02:57.947Z,83.53
2018-11-13T08:03:57.867Z,83.80
2018-11-13T08:04:57.864Z,83.59
2018-11-13T08:05:57.864Z,83.59
2018-11-13T08:06:57.829Z,83.09
2018-11-13T08:07:57.814Z,83.02
2018-11-13T08:08:57.860Z,82.92
2018-11-13T08:09:57.877Z,83.23
2018-11-13T08:10:57.780Z,83.18
2018-11-13T08:11:57.783Z,83.59
2018-11-13T08:12:57.855Z,83.63
2018-11-13T08:13:57.743Z,83.90
2018-11-13T08:14:57.735Z,83.90
2018-11-13T08:15:57.744Z,84.11
2018-11-13T08:16:57.717Z,83.70
2018-11-13T08:17:57.779Z,83.59
2018-11-13T08:18:57.711Z,84.00
2018-11-13T08:19:57.674Z,83.94
2018-11-13T08:20:57.724Z,83.53
2018-11-13T08:21:57.673Z,83.53
2018-11-13T08:22:57.643Z,84.25
2018-11-13T08:23:57.649Z,84.25
2018-11-13T08:24:57.613Z,84.04
2018-11-13T08:26:18.736Z,83.94
2018-11-13T08:26:57.653Z,84.75
2018-11-13T08:27:57.627Z,84.45
2018-11-13T08:28:57.689Z,84.14
2018-11-13T08:29:57.590Z,84.96
2018-11-13T08:30:57.557Z,85.06
2018-11-13T08:31:57.577Z,84.86
2018-11-13T08:32:57.524Z,84.66
2018-11-13T08:33:57.517Z,84.86
2018-11-13T08:34:57.533Z,84.86
2018-11-13T08:35:57.501Z,84.75
2018-11-13T08:36:57.488Z,84.45
2018-11-13T08:37:57.483Z,84.75
2018-11-13T08:38:57.762Z,84.75
2018-11-13T08:39:57.443Z,85.47
2018-11-13T08:40:57.476Z,85.27
2018-11-13T08:41:57.488Z,85.68
2018-11-13T08:42:57.419Z,86.08
2018-11-13T08:43:57.433Z,87.00
2018-11-13T08:44:58.261Z,87.10
2018-11-13T08:45:57.376Z,86.80
2018-11-13T08:46:57.369Z,86.90
2018-11-13T08:47:57.386Z,87.04
2018-11-13T08:48:57.344Z,86.80
2018-11-13T08:49:57.335Z,87.41
2018-11-13T08:50:57.353Z,87.35
2018-11-13T08:51:57.310Z,87.35
2018-11-13T08:52:57.309Z,87.76
2018-11-13T08:53:57.292Z,87.96
2018-11-13T08:54:57.271Z,87.96
2018-11-13T08:55:57.268Z,87.96
2018-11-13T08:56:57.255Z,88.06
2018-11-13T08:57:57.261Z,88.17
2018-11-13T08:58:57.361Z,88.17
2018-11-13T08:59:57.233Z,88.88
2018-11-13T09:00:57.202Z,88.98
2018-11-13T09:01:57.196Z,88.67
2018-11-13T09:02:57.184Z,88.88
2018-11-13T09:03:57.840Z,88.78
2018-11-13T09:04:57.178Z,88.88
2018-11-13T09:05:57.161Z,88.88
2018-11-13T09:06:57.137Z,88.61
2018-11-13T09:07:57.125Z,89.02
2018-11-13T09:08:57.108Z,89.73
2018-11-13T09:09:57.104Z,89.84
2018-11-13T09:10:57.086Z,89.94
2018-11-13T09:11:57.292Z,89.73
2018-11-13T09:12:57.770Z,89.67
2018-11-13T09:13:57.065Z,89.88
2018-11-13T09:14:57.051Z,89.84
2018-11-13T09:15:57.031Z,89.26
2018-11-13T09:16:57.019Z,89.98
2018-11-13T09:17:57.114Z,89.58
2018-11-13T09:18:57.064Z,89.67
2018-11-13T09:19:57.015Z,90.08
2018-11-13T09:20:56.976Z,88.76
2018-11-13T09:21:56.960Z,89.17
2018-11-13T09:22:56.953Z,88.96
2018-11-13T09:23:56.953Z,88.96
2018-11-13T09:24:56.936Z,88.65
2018-11-13T09:25:56.938Z,89.58
2018-11-13T09:26:56.911Z,89.17
2018-11-13T09:27:56.895Z,89.17
2018-11-13T09:29:08.795Z,89.17
2018-11-13T09:29:56.991Z,89.20
2018-11-13T09:30:57.272Z,89.37
2018-11-13T09:31:57.026Z,88.55
2018-11-13T09:32:57.812Z,89.26
2018-11-13T09:33:56.849Z,89.11
2018-11-13T09:34:56.849Z,89.00
2018-11-13T09:35:56.827Z,89.31
2018-11-13T09:36:56.868Z,89.00
2018-11-13T09:37:56.818Z,88.79
2018-11-13T09:38:56.844Z,88.79
2018-11-13T09:39:56.831Z,88.79
2018-11-13T09:40:56.834Z,88.70
2018-11-13T09:41:56.800Z,88.90
2018-11-13T09:42:56.785Z,89.31
2018-11-13T09:43:56.728Z,89.97
2018-11-13T09:44:56.828Z,88.64
2018-11-13T09:45:56.839Z,88.94
2018-11-13T09:46:56.790Z,88.84
2018-11-13T09:47:56.703Z,88.64
2018-11-13T09:48:56.712Z,88.64
2018-11-13T09:49:56.700Z,89.25
2018-11-13T09:50:56.688Z,89.20
2018-11-13T09:51:56.636Z,89.76
2018-11-13T09:52:56.691Z,90.00
2018-11-13T09:53:56.628Z,90.06
2018-11-13T09:54:56.720Z,90.58
2018-11-13T09:55:56.605Z,90.41
2018-11-13T09:56:56.585Z,90.41
2018-11-13T09:57:56.615Z,90.17
2018-11-13T09:58:57.329Z,90.68
2018-11-13T09:59:58.349Z,90.62
2018-11-13T10:00:56.843Z,91.03
2018-11-13T10:01:57.005Z,91.13
2018-11-13T10:02:58.157Z,91.33
2018-11-13T10:03:57.228Z,92.05
2018-11-13T10:04:57.219Z,91.54
2018-11-13T10:05:56.532Z,91.54
2018-11-13T10:06:56.553Z,91.74
2018-11-13T10:07:56.443Z,91.54
2018-11-13T10:08:56.488Z,92.56
2018-11-13T10:09:56.428Z,92.46
2018-11-13T10:10:56.412Z,92.56
2018-11-13T10:11:56.401Z,92.36
2018-11-13T10:12:56.383Z,92.46
2018-11-13T10:14:07.093Z,92.46
2018-11-13T10:14:56.443Z,92.19
2018-11-13T10:15:56.420Z,92.05
2018-11-13T10:17:06.498Z,92.60
2018-11-13T10:17:56.643Z,91.99
2018-11-13T10:18:56.390Z,92.87
2018-11-13T10:19:56.393Z,92.60
2018-11-13T10:20:56.853Z,92.50
2018-11-13T10:21:56.337Z,93.43
2018-11-13T10:22:56.274Z,93.52
2018-11-13T10:23:56.273Z,93.22
2018-11-13T10:24:56.275Z,93.22
2018-11-13T10:25:56.261Z,93.01
2018-11-13T10:26:56.276Z,93.01
2018-11-13T10:27:56.266Z,92.91
2018-11-13T10:28:56.208Z,93.12
2018-11-13T10:29:56.238Z,93.32
2018-11-13T10:30:56.208Z,93.37
2018-11-13T10:31:56.180Z,93.43
2018-11-13T10:32:56.171Z,93.77
2018-11-13T10:33:56.154Z,93.98
2018-11-13T10:34:56.144Z,93.47
2018-11-13T10:35:56.126Z,92.75
2018-11-13T10:36:56.138Z,93.47
2018-11-13T10:37:56.107Z,92.55
2018-11-13T10:38:56.119Z,92.85
2018-11-13T10:39:56.132Z,92.85
2018-11-13T10:40:56.162Z,93.37
2018-11-13T10:41:56.086Z,93.37
2018-11-13T10:42:56.152Z,93.47
2018-11-13T10:43:56.031Z,93.20
2018-11-13T10:44:56.052Z,93.26
2018-11-13T10:45:56.007Z,93.06
2018-11-13T10:46:55.997Z,93.37
2018-11-13T10:47:56.011Z,93.47
2018-11-13T10:48:56.006Z,93.37
2018-11-13T10:49:55.967Z,93.47
2018-11-13T10:50:56.029Z,93.47
2018-11-13T10:51:55.962Z,93.37
2018-11-13T10:54:09.339Z,93.26
2018-11-13T10:55:09.324Z,93.98
2018-11-13T10:56:09.229Z,94.02
2018-11-13T10:57:20.860Z,93.67
2018-11-13T10:58:09.230Z,93.77
2018-11-13T10:59:18.698Z,94.02
2018-11-13T11:00:09.252Z,93.77
2018-11-13T11:01:09.211Z,93.88
2018-11-13T11:02:09.264Z,93.41
2018-11-13T11:03:09.287Z,93.00
2018-11-13T11:04:09.151Z,93.06
2018-11-13T11:05:09.093Z,93.06
2018-11-13T11:06:09.079Z,92.85
2018-11-13T11:07:09.119Z,93.06
2018-11-13T11:08:09.081Z,93.57
2018-11-13T11:09:20.009Z,93.16
2018-11-13T11:10:09.060Z,92.90
2018-11-13T11:11:09.051Z,92.65
2018-11-13T11:12:09.201Z,93.51
2018-11-13T11:13:09.135Z,93.26
2018-11-13T11:14:09.031Z,93.16
2018-11-13T11:15:09.011Z,93.30
2018-11-13T11:16:09.932Z,93.62
2018-11-13T11:17:09.521Z,93.30
2018-11-13T11:18:18.532Z,93.00
2018-11-13T11:19:09.083Z,93.10
2018-11-13T11:20:08.987Z,92.75
2018-11-13T11:21:08.993Z,92.85
2018-11-13T11:22:08.946Z,92.75
2018-11-13T11:23:08.971Z,92.79
2018-11-13T11:24:09.002Z,92.28
2018-11-13T11:25:08.912Z,92.75
2018-11-13T11:26:18.929Z,93.62
2018-11-13T11:27:08.889Z,93.26
2018-11-13T11:28:08.933Z,93.47
2018-11-13T11:29:08.892Z,93.57
2018-11-13T11:30:08.892Z,93.41
2018-11-13T11:31:08.925Z,92.96
2018-11-13T11:32:08.810Z,92.55
2018-11-13T11:33:19.671Z,92.90
2018-11-13T11:35:23.269Z,92.55
2018-11-13T11:36:23.267Z,93.26
2018-11-13T11:37:23.219Z,92.65
2018-11-13T11:38:33.961Z,92.75
2018-11-13T11:39:32.646Z,92.71
2018-11-13T11:40:23.191Z,93.06
2018-11-13T11:42:34.458Z,93.52
2018-11-13T11:43:34.431Z,92.65
2018-11-13T11:44:34.438Z,92.40
2018-11-13T11:45:34.411Z,92.30
2018-11-13T11:46:45.265Z,92.60
2018-11-13T11:48:46.797Z,92.81
2018-11-13T11:49:46.686Z,92.30
2018-11-13T11:50:55.305Z,92.10
2018-11-13T11:51:46.630Z,91.99
2018-11-13T11:52:57.254Z,91.99
2018-11-13T11:53:46.649Z,92.10
2018-11-13T11:54:46.561Z,91.78
2018-11-13T11:55:46.582Z,91.95
2018-11-13T11:56:46.576Z,91.33
2018-11-13T11:57:46.664Z,91.38
2018-11-13T11:58:46.536Z,90.97
2018-11-13T11:59:59.003Z,90.97
2018-11-13T12:00:46.717Z,90.82
2018-11-13T12:01:46.518Z,91.44
2018-11-13T12:02:46.584Z,90.86
2018-11-13T12:03:46.528Z,90.86
2018-11-13T12:04:46.594Z,90.62
2018-11-13T12:05:46.453Z,90.66
2018-11-13T12:06:46.406Z,90.15
2018-11-13T12:07:46.413Z,90.45
2018-11-13T12:09:04.046Z,90.36
2018-11-13T12:09:47.861Z,90.86
2018-11-13T12:10:46.400Z,90.86
2018-11-13T12:11:46.374Z,90.97
2018-11-13T12:12:46.395Z,91.63
2018-11-13T12:13:46.379Z,91.73
2018-11-13T12:14:46.469Z,91.42
2018-11-13T12:15:46.333Z,91.63
2018-11-13T12:16:46.296Z,91.16
2018-11-13T12:17:46.298Z,91.52
2018-11-13T12:18:46.320Z,91.56
2018-11-13T12:19:46.262Z,91.01
2018-11-13T12:20:46.275Z,91.73
2018-11-13T12:21:55.796Z,91.63
2018-11-13T12:22:46.306Z,91.05
2018-11-13T12:23:46.267Z,90.23
2018-11-13T12:24:56.126Z,91.01
2018-11-13T12:25:46.309Z,91.16
2018-11-13T12:26:54.979Z,90.54
2018-11-13T12:27:55.835Z,90.75
2018-11-13T12:28:46.185Z,90.75
2018-11-13T12:29:56.038Z,90.44
2018-11-13T12:30:58.618Z,90.75
2018-11-13T12:31:46.201Z,91.16
2018-11-13T12:32:46.198Z,91.26
2018-11-13T12:33:46.158Z,90.84
2018-11-13T12:34:46.230Z,91.16
2018-11-13T12:35:55.643Z,90.95
2018-11-13T12:36:54.741Z,91.36
2018-11-13T12:37:46.082Z,91.09
2018-11-13T12:38:55.633Z,91.77
2018-11-13T12:39:46.109Z,90.79
2018-11-13T12:40:46.106Z,90.99
2018-11-13T12:41:55.615Z,91.09
2018-11-13T12:42:54.701Z,91.50
2018-11-13T12:43:54.660Z,91.50
2018-11-13T12:44:55.516Z,91.82
2018-11-13T12:45:46.064Z,91.61
2018-11-13T12:46:55.897Z,92.02
2018-11-13T12:47:54.610Z,91.82
2018-11-13T12:48:46.060Z,91.61
2018-11-13T12:49:54.603Z,92.22
2018-11-13T12:51:57.611Z,92.02
2018-11-13T12:52:57.476Z,92.02
2018-11-13T12:54:06.945Z,92.02
2018-11-13T12:54:57.457Z,92.02
2018-11-13T12:56:09.259Z,91.71
2018-11-13T12:56:57.423Z,92.22
2018-11-13T12:58:06.977Z,91.91
2018-11-13T12:58:57.417Z,91.91
2018-11-13T12:59:57.369Z,91.40
2018-11-13T13:01:06.841Z,91.40
2018-11-13T13:01:57.423Z,91.75
2018-11-13T13:02:57.392Z,91.82
2018-11-13T13:03:57.328Z,91.96
2018-11-13T13:05:07.708Z,92.12
2018-11-13T13:05:57.343Z,91.82
2018-11-13T13:06:57.313Z,92.27
2018-11-13T13:07:57.307Z,92.22
2018-11-13T13:08:57.321Z,91.75
2018-11-13T13:10:07.407Z,92.02
2018-11-13T13:10:57.312Z,92.06
2018-11-13T13:12:08.135Z,91.91
2018-11-13T13:13:09.840Z,92.02
2018-11-13T13:14:08.322Z,91.82
2018-11-13T13:14:57.304Z,92.02
2018-11-13T13:15:57.211Z,91.55
2018-11-13T13:17:05.840Z,91.91
2018-11-13T13:19:11.031Z,91.96
2018-11-13T13:20:19.606Z,91.65
2018-11-13T13:21:11.023Z,91.65
2018-11-13T13:22:20.543Z,92.16
2018-11-13T13:23:23.074Z,92.98
2018-11-13T13:24:11.010Z,92.57
2018-11-13T13:25:10.951Z,92.57
2018-11-13T13:26:10.975Z,92.57
2018-11-13T13:27:20.375Z,93.49